Date,TemperatureHighF,TemperatureAvgF,TemperatureLowF,DewpointHighF,DewpointAvgF,DewpointLowF,HumidityHigh,HumidityAvg,HumidityLow,PressureMaxIn,PressureMinIn,WindSpeedMaxMPH,WindSpeedAvgMPH,GustSpeedMaxMPH,PrecipitationSumIn
2013-1-7,47.1,46.4,45.9,46.0,45.2,44.5,96,96,95,29.94,29.90,3,1,3,0.45
2013-1-8,50.9,46.3,40.8,49.8,44.3,38.5,97,93,85,30.03,29.87,10,4,15,0.06
2013-1-9,44.6,39.4,34.9,40.5,36.8,32.8,96,90,84,30.03,29.91,7,3,12,0.01
2013-1-10,41.2,38.2,33.8,39.3,36.4,31.2,96,93,89,29.91,29.83,4,2,8,0.00
2013-1-11,41.4,38.9,36.9,39.5,37.6,34.8,97,95,91,29.89,29.85,3,1,4,0.02
2013-1-12,39.4,36.6,33.6,35.7,32.8,29.2,93,86,80,30.00,29.83,4,1,6,0.00
2013-1-13,36.9,35.0,33.4,34.2,31.7,30.1,91,88,83,30.00,29.83,4,1,6,0.12
2013-1-14,38.1,35.7,32.0,36.1,31.3,27.0,95,84,74,29.83,29.60,7,3,11,0.07
2013-1-15,35.8,32.7,27.1,31.4,29.0,23.0,90,86,81,29.78,29.67,7,2,11,0.00
2013-1-16,33.4,30.0,25.9,29.0,25.7,22.0,90,84,79,29.85,29.70,2,0,2,0.00
2013-1-17,35.4,33.1,32.0,28.0,25.8,22.8,83,74,60,29.87,29.69,7,2,15,0.00
2013-1-18,34.7,33.4,31.8,30.7,25.7,22.8,90,73,64,29.69,29.43,10,6,18,0.00
2013-1-19,36.9,34.6,32.9,32.5,28.7,25.4,90,79,66,29.58,29.43,10,6,17,0.09
2013-1-20,34.9,33.9,32.7,28.7,25.4,22.9,83,71,64,29.57,29.40,12,8,20,0.01
2013-1-21,35.1,34.0,33.1,31.4,29.7,26.1,91,84,70,29.40,29.33,18,14,30,0.35
2013-1-22,36.0,35.0,33.3,32.6,31.7,30.6,91,88,82,29.70,29.36,17,7,25,0.27
2013-1-23,34.7,33.2,32.2,32.6,30.9,29.9,92,91,90,29.83,29.70,5,1,10,0.04
2013-1-24,36.5,33.9,32.5,34.4,30.8,27.9,93,88,77,29.93,29.83,3,1,6,0.09
2013-1-25,34.9,33.6,32.5,31.9,29.8,27.0,93,86,73,29.83,29.25,5,1,8,0.07
2013-1-26,40.5,36.4,33.1,39.1,33.7,30.7,95,90,81,29.40,28.87,10,4,15,0.57
2013-1-27,47.1,40.7,37.0,44.0,37.4,32.7,96,88,77,29.05,28.65,15,9,24,0.25
2013-1-28,44.8,41.1,37.6,42.1,37.0,33.7,93,86,73,29.18,28.76,15,10,24,0.38
2013-1-29,50.2,44.4,42.6,49.1,39.8,33.8,97,84,64,29.19,28.83,20,10,30,0.58
2013-1-30,45.0,42.1,36.7,39.0,34.7,31.1,93,75,62,29.48,28.97,22,12,32,0.20
2013-1-31,41.9,39.7,37.9,39.8,37.0,32.7,95,90,77,29.50,29.09,15,7,21,0.38